Portada
METAR-TAF:

METAR-TAF

Aeroports :

Honiara, Guadalcanal, Illes Salomó

latitud: 09-25S, longitud: 160-03E, altitud: 8 m

Observació

L'informe es va fer fa 25 hores i 4 minuts, a les 01:00 UTC
Vent 6 kt del Nord
Temperatura 31°C
Humitat 66%
Pressió 1009 hPa
Visibilitat 10 km o més
Escasses núvols a una alçada de 1900 ft
Cel ennuvolat a una alçada de 30000 ft

METAR: AGGH 150100Z 36006KT 9999 FEW019 BKN300 31/24 Q1009

Hora: 13:04 (02:04 UTC)

Pronòstic

L'informe es va fer fa 2 hores i 59 minuts, a les 23:05 UTC
Pronòstic vàlid del 16 a les 00 UTC al 16 a les 24 UTC
Vent 10 kt del Nord/Nord-Est
Visibilitat 10 km o més
Núvols disperses a una alçada de 1800 ft
Probabilitat 40%
entre IN i TE UTC
Visibilitat: 1010 m
Cel ennuvolat a una alçada de 1600 ft
Escasses núvols a una alçada de 1700 ft, Cumulonimbus.

TAF: AGGH 152305Z 1600/1624 02010KT 9999 SCT018 PROB40 INTER 1604/1606 5000 TSSH BKN016 FEW017CB T 30 31 30 26 Q 1011 1009 1008 1010

Observacions i pronòstics meteorològics de més de 4000 aeroports (METAR i TAF).

Les estacions disponibles són els punts grocs i vermells al mapa.

Posi el ratolí al punt desitjat per veure el nom de l'estació.

Feu clic per veure les observacions i els pronòstics meteorològics.

Per canviar el mapa: feu clic els botons verds amb una creu de color negre per apropar; al botó verd amb un guió per allunyar la imatge; o en les fletxes verdes per a mapes adjacents.


METAR-TAF: